Detailed System and Site Information

System Data Health
Measure Timestamp Ago Health
Web Server Live 00:40:12, 1st June 2016 0 s health
Last live-data upload from local system (nw3) 00:40:11, 1st June 2016 1 s health
Last upload of secondary data 23:00:23, 31st May 2016 100 mins health
Latest Webcam upload 00:39:08, 1st June 2016 64 s health
Last upload of 24hr data log 00:39:08, 1st June 2016 64 s health
Last full data process 00:40:07, 1st June 2016 5 s health
Last data downtime (>15 mins) 15:46:02, 25th February 2016 96 days
Local System and Site Information
Measure Value
WD Version & Build # 10.37R - 40
WD Start Time 12:11 11/05/16
WD Data Count 616003
WD Memory Use 58,628 K
--- ---
Windows Uptime 20 Days 10 Hours 51 Minutes 0 Seconds
Free System Memory 2589 MB (Max: 4GB)
--- ---
Station Altitude 57 m (187 ft)
Station Latitude 51.556
Station Longitude -0.154
Machine Room Conditions
Measure Value
Temperature 18.6 °C
Temperature Trend +0.0 °C /hr
Relative Humidity 45%
Dew Point 6.4 °C
--- ---
Tmin Today 18.3 °C at 20:22
Tmax Today 20.6 °C at 00:00
Hmin Today 38% at 00:00
Hmax Today 45% at 08:29
Tmin Yesterday 20.5 °C at 08:00
Tmax Yesterday 22.6 °C at 00:00

Site owner and administrator: Ben Lee-Rodgers (2010 - present)

Last 10hrs Temp/Hum for Secondary Sensor and Indoors

Extra Sensors/Indoor

Other

Raw METAR from EGLL (Heathrow)

EGLL 312250Z AUTO 01009KT 8000 OVC006 12/11 Q1020 TEMPO 4000 BR BKN004
Decode Instructions
Source

WD Screenshot

not available